Time,TemperatureF,DewpointF,PressureIn,WindDirection,WindDirectionDegrees,WindSpeedMPH,WindSpeedGustMPH,Humidity,HourlyPrecipIn,Conditions,Clouds,dailyrainin,SolarRadiationWatts/m^2,SoftwareType,DateUTC
2013-06-28 00:05:00,68.5,68.0,29.72,ENE,78,2.0,3.0,97,0.40,,,0.40,0,weatherlink.com 1.10,2013-06-28 04:05:00,
2013-06-28 00:20:00,68.5,68.0,29.71,NE,42,0.0,2.0,97,0.53,,,0.53,0,weatherlink.com 1.10,2013-06-28 04:20:00,
2013-06-28 00:35:00,68.8,68.0,29.70,NE,53,0.0,7.0,97,0.31,,,0.53,0,weatherlink.com 1.10,2013-06-28 04:35:00,
2013-06-28 00:50:00,69.2,69.0,29.70,NNW,344,2.0,6.0,98,0.28,,,0.53,0,weatherlink.com 1.10,2013-06-28 04:50:00,
2013-06-28 01:05:00,69.4,69.0,29.70,East,93,3.0,7.0,98,0.11,,,0.53,0,weatherlink.com 1.10,2013-06-28 05:05:00,
2013-06-28 01:20:00,69.5,69.0,29.69,NE,54,3.0,6.0,98,0.01,,,0.54,0,weatherlink.com 1.10,2013-06-28 05:20:00,
2013-06-28 01:35:00,69.5,69.0,29.68,NE,38,0.0,9.0,98,0.01,,,0.54,0,weatherlink.com 1.10,2013-06-28 05:35:00,
2013-06-28 01:50:00,69.6,69.0,29.66,SE,144,3.0,5.0,98,0.01,,,0.54,0,weatherlink.com 1.10,2013-06-28 05:50:00,
2013-06-28 02:05:00,69.8,69.0,29.66,ESE,113,1.0,5.0,98,0.01,,,0.54,0,weatherlink.com 1.10,2013-06-28 06:05:00,
2013-06-28 02:20:00,70.3,70.0,29.66,WNW,293,0.0,7.0,98,0.00,,,0.54,0,weatherlink.com 1.10,2013-06-28 06:20:00,
2013-06-28 02:35:00,70.3,70.0,29.65,East,85,2.0,6.0,98,0.00,,,0.54,0,weatherlink.com 1.10,2013-06-28 06:35:00,
2013-06-28 02:50:00,70.4,70.0,29.64,North,355,0.0,5.0,98,0.00,,,0.54,0,weatherlink.com 1.10,2013-06-28 06:50:00,
2013-06-28 03:05:00,70.6,70.0,29.65,West,281,1.0,5.0,98,0.00,,,0.54,0,weatherlink.com 1.10,2013-06-28 07:05:00,
2013-06-28 03:20:00,70.6,70.0,29.65,WSW,252,1.0,4.0,98,0.00,,,0.54,0,weatherlink.com 1.10,2013-06-28 07:20:00,
2013-06-28 03:35:00,70.6,70.0,29.64,West,281,1.0,4.0,98,0.00,,,0.54,0,weatherlink.com 1.10,2013-06-28 07:35:00,
2013-06-28 03:50:00,70.4,70.0,29.63,ENE,69,0.0,3.0,98,0.00,,,0.54,0,weatherlink.com 1.10,2013-06-28 07:50:00,
2013-06-28 04:05:00,70.3,70.0,29.63,NE,50,2.0,2.0,98,0.00,,,0.54,0,weatherlink.com 1.10,2013-06-28 08:05:00,
2013-06-28 04:20:00,70.1,70.0,29.62,NE,55,0.0,4.0,98,0.00,,,0.54,0,weatherlink.com 1.10,2013-06-28 08:20:00,
2013-06-28 04:35:00,69.8,69.0,29.62,SE,135,0.0,3.0,98,0.00,,,0.54,0,weatherlink.com 1.10,2013-06-28 08:35:00,
2013-06-28 04:50:00,69.5,69.0,29.62,East,98,2.0,6.0,98,0.00,,,0.54,0,weatherlink.com 1.10,2013-06-28 08:50:00,
2013-06-28 05:05:00,69.4,69.0,29.62,East,84,1.0,5.0,98,0.00,,,0.54,0,weatherlink.com 1.10,2013-06-28 09:05:00,
2013-06-28 05:20:00,69.3,69.0,29.62,ESE,108,1.0,4.0,98,0.00,,,0.54,0,weatherlink.com 1.10,2013-06-28 09:20:00,
2013-06-28 05:35:00,69.3,69.0,29.61,WSW,255,0.0,7.0,98,0.00,,,0.54,0,weatherlink.com 1.10,2013-06-28 09:35:00,
2013-06-28 05:50:00,69.3,69.0,29.61,ENE,76,0.0,2.0,98,0.00,,,0.54,0,weatherlink.com 1.10,2013-06-28 09:50:00,
2013-06-28 06:05:00,69.5,69.0,29.61,NW,325,0.0,5.0,98,0.00,,,0.54,7,weatherlink.com 1.10,2013-06-28 10:05:00,
2013-06-28 06:20:00,69.7,69.0,29.61,NE,39,0.0,5.0,98,0.00,,,0.54,12,weatherlink.com 1.10,2013-06-28 10:20:00,
2013-06-28 06:35:00,69.9,69.0,29.61,NW,306,3.0,3.0,98,0.00,,,0.54,7,weatherlink.com 1.10,2013-06-28 10:35:00,
2013-06-28 06:50:00,70.1,70.0,29.61,NNW,336,4.0,4.0,98,0.00,,,0.54,14,weatherlink.com 1.10,2013-06-28 10:50:00,
2013-06-28 07:05:00,70.3,70.0,29.61,ENE,70,0.0,6.0,98,0.00,,,0.54,11,weatherlink.com 1.10,2013-06-28 11:05:00,
2013-06-28 07:20:00,70.4,70.0,29.61,East,101,1.0,3.0,98,0.00,,,0.54,7,weatherlink.com 1.10,2013-06-28 11:20:00,
2013-06-28 07:35:00,70.4,70.0,29.61,ENE,63,0.0,3.0,98,0.00,,,0.54,12,weatherlink.com 1.10,2013-06-28 11:35:00,
2013-06-28 07:50:00,70.6,70.0,29.61,WNW,298,0.0,4.0,98,0.00,,,0.54,25,weatherlink.com 1.10,2013-06-28 11:50:00,
2013-06-28 08:05:00,71.0,70.0,29.61,West,266,0.0,6.0,98,0.00,,,0.54,37,weatherlink.com 1.10,2013-06-28 12:05:00,
2013-06-28 08:20:00,71.4,71.0,29.61,WSW,255,0.0,6.0,99,0.00,,,0.54,60,weatherlink.com 1.10,2013-06-28 12:20:00,
2013-06-28 08:35:00,71.8,72.0,29.60,WNW,294,0.0,4.0,99,0.00,,,0.54,60,weatherlink.com 1.10,2013-06-28 12:35:00,
2013-06-28 08:50:00,72.3,72.0,29.60,West,265,1.0,5.0,98,0.00,,,0.54,93,weatherlink.com 1.10,2013-06-28 12:50:00,
2013-06-28 09:05:00,72.5,72.0,29.59,West,259,1.0,9.0,99,0.00,,,0.54,113,weatherlink.com 1.10,2013-06-28 13:05:00,
2013-06-28 09:20:00,73.0,72.0,29.59,West,263,1.0,6.0,98,0.00,,,0.54,204,weatherlink.com 1.10,2013-06-28 13:20:00,
2013-06-28 09:35:00,73.8,73.0,29.58,West,267,3.0,8.0,98,0.00,,,0.54,169,weatherlink.com 1.10,2013-06-28 13:35:00,
2013-06-28 09:50:00,75.0,74.0,29.58,NW,312,1.0,6.0,96,0.00,,,0.54,705,weatherlink.com 1.10,2013-06-28 13:50:00,
2013-06-28 10:06:00,76.3,75.0,29.58,SSW,204,1.0,13.0,94,0.00,,,0.54,262,weatherlink.com 1.10,2013-06-28 14:06:00,
2013-06-28 10:21:00,77.3,75.0,29.57,NNW,340,0.0,9.0,91,0.00,,,0.54,213,weatherlink.com 1.10,2013-06-28 14:21:00,
2013-06-28 10:36:00,78.0,75.0,29.57,WSW,248,0.0,10.0,91,0.00,,,0.54,824,weatherlink.com 1.10,2013-06-28 14:36:00,
2013-06-28 10:51:00,80.5,76.0,29.57,ENE,73,1.0,8.0,87,0.00,,,0.54,900,weatherlink.com 1.10,2013-06-28 14:51:00,
2013-06-28 11:06:00,81.0,75.0,29.58,SW,217,1.0,6.0,82,0.00,,,0.54,213,weatherlink.com 1.10,2013-06-28 15:06:00,
2013-06-28 11:21:00,80.6,77.0,29.58,WNW,287,2.0,3.0,87,0.00,,,0.54,271,weatherlink.com 1.10,2013-06-28 15:21:00,
2013-06-28 11:36:00,81.7,76.0,29.59,SSE,155,1.0,7.0,83,0.00,,,0.54,169,weatherlink.com 1.10,2013-06-28 15:36:00,
2013-06-28 11:51:00,82.9,77.0,29.59,NW,307,0.0,3.0,83,0.00,,,0.54,972,weatherlink.com 1.10,2013-06-28 15:51:00,
2013-06-28 12:06:00,82.9,77.0,29.58,ENE,66,0.0,11.0,81,0.00,,,0.54,450,weatherlink.com 1.10,2013-06-28 16:06:00,
2013-06-28 12:21:00,82.5,76.0,29.58,East,101,0.0,8.0,81,0.00,,,0.54,367,weatherlink.com 1.10,2013-06-28 16:21:00,
2013-06-28 12:36:00,82.9,76.0,29.58,West,263,2.0,9.0,79,0.00,,,0.54,1002,weatherlink.com 1.10,2013-06-28 16:36:00,
2013-06-28 12:51:00,83.7,76.0,29.58,East,101,2.0,7.0,77,0.00,,,0.54,1056,weatherlink.com 1.10,2013-06-28 16:51:00,
2013-06-28 13:06:00,84.0,76.0,29.58,NNE,32,1.0,10.0,76,0.00,,,0.54,1051,weatherlink.com 1.10,2013-06-28 17:06:00,
2013-06-28 13:21:00,83.2,74.0,29.58,SSW,209,0.0,12.0,73,0.00,,,0.54,392,weatherlink.com 1.10,2013-06-28 17:21:00,
2013-06-28 13:36:00,82.4,73.0,29.58,NNE,17,4.0,11.0,74,0.00,,,0.54,1021,weatherlink.com 1.10,2013-06-28 17:36:00,
2013-06-28 13:51:00,83.1,74.0,29.58,NE,49,7.0,8.0,75,0.00,,,0.54,243,weatherlink.com 1.10,2013-06-28 17:51:00,
2013-06-28 14:06:00,83.0,76.0,29.58,SE,126,0.0,8.0,78,0.00,,,0.54,487,weatherlink.com 1.10,2013-06-28 18:06:00,
2013-06-28 14:21:00,82.0,74.0,29.57,West,279,3.0,8.0,77,0.00,,,0.54,424,weatherlink.com 1.10,2013-06-28 18:21:00,
2013-06-28 14:36:00,81.3,74.0,29.57,West,263,3.0,7.0,78,0.00,,,0.54,260,weatherlink.com 1.10,2013-06-28 18:36:00,
2013-06-28 14:51:00,80.7,74.0,29.57,SW,236,6.0,9.0,79,0.00,,,0.54,104,weatherlink.com 1.10,2013-06-28 18:51:00,
2013-06-28 15:06:00,79.8,74.0,29.57,SW,231,3.0,10.0,81,0.00,,,0.54,128,weatherlink.com 1.10,2013-06-28 19:06:00,
2013-06-28 15:21:00,79.6,74.0,29.56,ENE,63,1.0,6.0,83,0.00,,,0.54,200,weatherlink.com 1.10,2013-06-28 19:21:00,
2013-06-28 15:51:00,80.0,75.0,29.57,West,279,4.0,10.0,85,0.00,,,0.54,779,weatherlink.com 1.10,2013-06-28 19:51:00,
2013-06-28 16:06:00,82.2,75.0,29.56,WSW,246,4.0,13.0,78,0.00,,,0.54,687,weatherlink.com 1.10,2013-06-28 20:06:00,
2013-06-28 16:21:00,82.9,75.0,29.56,NE,48,3.0,7.0,77,0.00,,,0.54,142,weatherlink.com 1.10,2013-06-28 20:21:00,
2013-06-28 16:36:00,82.4,76.0,29.56,NW,325,0.0,7.0,80,0.00,,,0.54,265,weatherlink.com 1.10,2013-06-28 20:36:00,
2013-06-28 16:51:00,83.2,75.0,29.57,SE,140,0.0,10.0,77,0.00,,,0.54,550,weatherlink.com 1.10,2013-06-28 20:51:00,
2013-06-28 17:06:00,83.6,75.0,29.57,NW,305,0.0,8.0,74,0.00,,,0.54,267,weatherlink.com 1.10,2013-06-28 21:06:00,
2013-06-28 17:21:00,84.1,75.0,29.57,WNW,289,0.0,5.0,74,0.00,,,0.54,397,weatherlink.com 1.10,2013-06-28 21:21:00,
2013-06-28 17:36:00,83.4,74.0,29.56,WNW,295,2.0,9.0,74,0.00,,,0.54,390,weatherlink.com 1.10,2013-06-28 21:36:00,
2013-06-28 17:51:00,82.1,74.0,29.56,WNW,292,1.0,8.0,75,0.00,,,0.54,69,weatherlink.com 1.10,2013-06-28 21:51:00,
2013-06-28 18:06:00,80.4,73.0,29.57,NW,310,1.0,5.0,79,0.00,,,0.54,40,weatherlink.com 1.10,2013-06-28 22:06:00,
2013-06-28 18:21:00,79.1,73.0,29.56,NNE,23,0.0,3.0,82,0.00,,,0.54,67,weatherlink.com 1.10,2013-06-28 22:21:00,
2013-06-28 18:36:00,78.3,73.0,29.56,West,279,3.0,4.0,83,0.00,,,0.54,56,weatherlink.com 1.10,2013-06-28 22:36:00,
2013-06-28 18:51:00,77.3,72.0,29.56,NNE,16,0.0,3.0,83,0.00,,,0.54,23,weatherlink.com 1.10,2013-06-28 22:51:00,
2013-06-28 19:06:00,76.3,72.0,29.57,NE,56,0.0,1.0,85,0.00,,,0.54,30,weatherlink.com 1.10,2013-06-28 23:06:00,
2013-06-28 19:21:00,75.2,71.0,29.56,SE,134,0.0,4.0,87,0.00,,,0.54,40,weatherlink.com 1.10,2013-06-28 23:21:00,
2013-06-28 19:36:00,74.3,71.0,29.57,North,360,0.0,4.0,89,0.00,,,0.54,19,weatherlink.com 1.10,2013-06-28 23:36:00,
2013-06-28 19:51:00,73.6,70.0,29.57,ENE,63,0.0,2.0,89,0.00,,,0.00,11,weatherlink.com 1.10,2013-06-28 23:51:00,
2013-06-28 20:06:00,72.9,70.0,29.57,ENE,63,0.0,1.0,91,0.00,,,0.00,0,weatherlink.com 1.10,2013-06-29 00:06:00,
2013-06-28 20:21:00,72.2,70.0,29.57,ENE,63,0.0,1.0,92,0.00,,,0.00,0,weatherlink.com 1.10,2013-06-29 00:21:00,
2013-06-28 20:36:00,71.9,70.0,29.59,WNW,293,2.0,6.0,93,0.00,,,0.00,0,weatherlink.com 1.10,2013-06-29 00:36:00,
2013-06-28 20:52:00,71.7,70.0,29.59,NNW,333,0.0,3.0,94,0.00,,,0.00,0,weatherlink.com 1.10,2013-06-29 00:52:00,
2013-06-28 21:07:00,71.6,70.0,29.59,WNW,286,1.0,3.0,94,0.00,,,0.00,0,weatherlink.com 1.10,2013-06-29 01:07:00,
2013-06-28 21:22:00,71.6,70.0,29.60,ENE,64,0.0,3.0,94,0.00,,,0.00,0,weatherlink.com 1.10,2013-06-29 01:22:00,
2013-06-28 21:37:00,71.5,70.0,29.61,ENE,68,0.0,3.0,94,0.00,,,0.00,0,weatherlink.com 1.10,2013-06-29 01:37:00,
2013-06-28 21:52:00,71.4,70.0,29.61,NNE,17,0.0,2.0,94,0.00,,,0.00,0,weatherlink.com 1.10,2013-06-29 01:52:00,
2013-06-28 22:07:00,71.4,70.0,29.60,WNW,286,1.0,2.0,95,0.00,,,0.00,0,weatherlink.com 1.10,2013-06-29 02:07:00,
2013-06-28 22:22:00,71.4,70.0,29.59,NE,51,0.0,1.0,95,0.00,,,0.00,0,weatherlink.com 1.10,2013-06-29 02:22:00,
2013-06-28 22:37:00,71.4,70.0,29.60,NE,51,1.0,2.0,95,0.00,,,0.00,0,weatherlink.com 1.10,2013-06-29 02:37:00,
2013-06-28 22:52:00,71.5,70.0,29.60,North,5,1.0,1.0,96,0.00,,,0.00,0,weatherlink.com 1.10,2013-06-29 02:52:00,
2013-06-28 23:07:00,71.3,70.0,29.60,ENE,70,0.0,2.0,96,0.00,,,0.00,0,weatherlink.com 1.10,2013-06-29 03:07:00,
2013-06-28 23:22:00,71.3,70.0,29.60,NE,54,0.0,1.0,96,0.00,,,0.00,0,weatherlink.com 1.10,2013-06-29 03:22:00,
2013-06-28 23:37:00,71.3,70.0,29.60,ENE,61,0.0,4.0,96,0.00,,,0.00,0,weatherlink.com 1.10,2013-06-29 03:37:00,
2013-06-28 23:52:00,71.3,70.0,29.60,East,97,0.0,2.0,97,0.00,,,0.00,0,weatherlink.com 1.10,2013-06-29 03:52:00,